sensor_id;sensor_type;location;lat;lon;timestamp;P1;durP1;ratioP1;P2;durP2;ratioP2
70052;SDS011;57398;52.032;4.376;2023-03-01T00:00:45;18.83;;;8.40;;
70052;SDS011;57398;52.032;4.376;2023-03-01T00:03:33;19.30;;;8.77;;
70052;SDS011;57398;52.032;4.376;2023-03-01T00:06:22;19.33;;;8.18;;
70052;SDS011;57398;52.032;4.376;2023-03-01T00:09:13;17.80;;;8.10;;
70052;SDS011;57398;52.032;4.376;2023-03-01T00:12:01;17.67;;;8.30;;
70052;SDS011;57398;52.032;4.376;2023-03-01T00:14:49;22.08;;;8.65;;
70052;SDS011;57398;52.032;4.376;2023-03-01T00:17:37;18.47;;;7.63;;
70052;SDS011;57398;52.032;4.376;2023-03-01T00:20:26;20.65;;;9.07;;
70052;SDS011;57398;52.032;4.376;2023-03-01T00:23:14;18.35;;;8.07;;
70052;SDS011;57398;52.032;4.376;2023-03-01T00:26:06;22.02;;;8.68;;
70052;SDS011;57398;52.032;4.376;2023-03-01T00:28:56;22.23;;;8.57;;
70052;SDS011;57398;52.032;4.376;2023-03-01T00:31:45;18.67;;;8.93;;
70052;SDS011;57398;52.032;4.376;2023-03-01T00:34:33;21.05;;;9.35;;
70052;SDS011;57398;52.032;4.376;2023-03-01T00:37:22;19.42;;;8.20;;
70052;SDS011;57398;52.032;4.376;2023-03-01T00:40:11;20.80;;;8.27;;
70052;SDS011;57398;52.032;4.376;2023-03-01T00:43:04;19.35;;;8.75;;
70052;SDS011;57398;52.032;4.376;2023-03-01T00:45:52;22.80;;;9.00;;
70052;SDS011;57398;52.032;4.376;2023-03-01T00:48:40;23.50;;;9.25;;
70052;SDS011;57398;52.032;4.376;2023-03-01T00:51:29;20.35;;;8.65;;
70052;SDS011;57398;52.032;4.376;2023-03-01T00:54:17;21.70;;;8.88;;
70052;SDS011;57398;52.032;4.376;2023-03-01T00:57:05;18.48;;;8.57;;
70052;SDS011;57398;52.032;4.376;2023-03-01T00:59:55;20.93;;;7.67;;
70052;SDS011;57398;52.032;4.376;2023-03-01T01:02:43;22.00;;;8.55;;
70052;SDS011;57398;52.032;4.376;2023-03-01T01:05:33;18.75;;;8.63;;
70052;SDS011;57398;52.032;4.376;2023-03-01T01:08:22;18.60;;;8.35;;
70052;SDS011;57398;52.032;4.376;2023-03-01T01:11:10;23.42;;;9.45;;
70052;SDS011;57398;52.032;4.376;2023-03-01T01:13:59;20.23;;;8.50;;
70052;SDS011;57398;52.032;4.376;2023-03-01T01:16:48;21.60;;;8.57;;
70052;SDS011;57398;52.032;4.376;2023-03-01T01:19:36;21.20;;;8.30;;
70052;SDS011;57398;52.032;4.376;2023-03-01T01:22:24;19.65;;;8.77;;
70052;SDS011;57398;52.032;4.376;2023-03-01T01:25:13;22.25;;;9.27;;
70052;SDS011;57398;52.032;4.376;2023-03-01T01:28:01;22.20;;;8.20;;
70052;SDS011;57398;52.032;4.376;2023-03-01T01:30:49;23.40;;;8.77;;
70052;SDS011;57398;52.032;4.376;2023-03-01T01:33:38;24.65;;;8.82;;
70052;SDS011;57398;52.032;4.376;2023-03-01T01:36:26;23.23;;;8.85;;
70052;SDS011;57398;52.032;4.376;2023-03-01T01:39:15;21.05;;;9.23;;
70052;SDS011;57398;52.032;4.376;2023-03-01T01:42:03;19.73;;;7.93;;
70052;SDS011;57398;52.032;4.376;2023-03-01T01:48:14;22.38;;;8.60;;
70052;SDS011;57398;52.032;4.376;2023-03-01T01:51:09;20.58;;;8.50;;
70052;SDS011;57398;52.032;4.376;2023-03-01T01:54:00;22.90;;;9.65;;
70052;SDS011;57398;52.032;4.376;2023-03-01T01:56:50;20.90;;;8.23;;
70052;SDS011;57398;52.032;4.376;2023-03-01T01:59:43;22.70;;;8.88;;
70052;SDS011;57398;52.032;4.376;2023-03-01T02:02:35;22.40;;;8.55;;
70052;SDS011;57398;52.032;4.376;2023-03-01T02:05:26;21.52;;;8.45;;
70052;SDS011;57398;52.032;4.376;2023-03-01T02:08:25;22.30;;;8.90;;
70052;SDS011;57398;52.032;4.376;2023-03-01T02:11:17;19.83;;;8.70;;
70052;SDS011;57398;52.032;4.376;2023-03-01T02:14:06;21.65;;;8.18;;
70052;SDS011;57398;52.032;4.376;2023-03-01T02:16:54;20.45;;;7.95;;
70052;SDS011;57398;52.032;4.376;2023-03-01T02:19:46;23.58;;;8.43;;
70052;SDS011;57398;52.032;4.376;2023-03-01T02:22:42;23.42;;;8.45;;
70052;SDS011;57398;52.032;4.376;2023-03-01T02:25:35;23.07;;;8.40;;
70052;SDS011;57398;52.032;4.376;2023-03-01T02:28:32;25.23;;;9.13;;
70052;SDS011;57398;52.032;4.376;2023-03-01T02:31:21;26.25;;;9.32;;
70052;SDS011;57398;52.032;4.376;2023-03-01T02:34:27;27.00;;;10.07;;
70052;SDS011;57398;52.032;4.376;2023-03-01T02:37:18;25.05;;;8.57;;
70052;SDS011;57398;52.032;4.376;2023-03-01T02:40:12;26.10;;;10.07;;
70052;SDS011;57398;52.032;4.376;2023-03-01T02:43:04;25.58;;;10.48;;
70052;SDS011;57398;52.032;4.376;2023-03-01T02:45:59;26.02;;;10.35;;
70052;SDS011;57398;52.032;4.376;2023-03-01T02:48:53;26.40;;;9.88;;
70052;SDS011;57398;52.032;4.376;2023-03-01T02:51:45;25.05;;;9.82;;
70052;SDS011;57398;52.032;4.376;2023-03-01T02:54:43;26.13;;;9.73;;
70052;SDS011;57398;52.032;4.376;2023-03-01T02:57:37;25.83;;;9.68;;
70052;SDS011;57398;52.032;4.376;2023-03-01T03:00:28;28.17;;;10.05;;
70052;SDS011;57398;52.032;4.376;2023-03-01T03:03:23;26.17;;;9.43;;
70052;SDS011;57398;52.032;4.376;2023-03-01T03:06:11;26.85;;;9.88;;
70052;SDS011;57398;52.032;4.376;2023-03-01T03:09:00;25.70;;;9.23;;
70052;SDS011;57398;52.032;4.376;2023-03-01T03:11:49;27.65;;;10.05;;
70052;SDS011;57398;52.032;4.376;2023-03-01T03:14:38;26.05;;;9.23;;
70052;SDS011;57398;52.032;4.376;2023-03-01T03:17:26;22.00;;;9.40;;
70052;SDS011;57398;52.032;4.376;2023-03-01T03:20:17;30.67;;;10.57;;
70052;SDS011;57398;52.032;4.376;2023-03-01T03:23:07;24.60;;;9.47;;
70052;SDS011;57398;52.032;4.376;2023-03-01T03:25:55;26.52;;;9.48;;
70052;SDS011;57398;52.032;4.376;2023-03-01T03:28:44;25.60;;;9.48;;
70052;SDS011;57398;52.032;4.376;2023-03-01T03:31:33;22.48;;;9.68;;
70052;SDS011;57398;52.032;4.376;2023-03-01T03:34:21;26.02;;;9.40;;
70052;SDS011;57398;52.032;4.376;2023-03-01T03:37:11;27.20;;;10.37;;
70052;SDS011;57398;52.032;4.376;2023-03-01T03:40:13;25.25;;;9.05;;
70052;SDS011;57398;52.032;4.376;2023-03-01T03:43:04;24.05;;;9.88;;
70052;SDS011;57398;52.032;4.376;2023-03-01T03:45:53;24.30;;;9.25;;
70052;SDS011;57398;52.032;4.376;2023-03-01T03:48:44;20.73;;;8.93;;
70052;SDS011;57398;52.032;4.376;2023-03-01T03:51:33;28.63;;;9.50;;
70052;SDS011;57398;52.032;4.376;2023-03-01T03:54:22;24.83;;;9.30;;
70052;SDS011;57398;52.032;4.376;2023-03-01T03:57:10;22.50;;;9.73;;
70052;SDS011;57398;52.032;4.376;2023-03-01T03:59:58;25.85;;;9.75;;
70052;SDS011;57398;52.032;4.376;2023-03-01T04:02:47;26.23;;;9.90;;
70052;SDS011;57398;52.032;4.376;2023-03-01T04:05:36;23.53;;;8.63;;
70052;SDS011;57398;52.032;4.376;2023-03-01T04:08:25;25.92;;;9.77;;
70052;SDS011;57398;52.032;4.376;2023-03-01T04:11:15;26.58;;;9.52;;
70052;SDS011;57398;52.032;4.376;2023-03-01T04:14:15;25.55;;;10.10;;
70052;SDS011;57398;52.032;4.376;2023-03-01T04:17:04;26.15;;;10.20;;
70052;SDS011;57398;52.032;4.376;2023-03-01T04:19:52;27.60;;;9.77;;
70052;SDS011;57398;52.032;4.376;2023-03-01T04:22:40;24.33;;;9.40;;
70052;SDS011;57398;52.032;4.376;2023-03-01T04:25:28;30.65;;;11.65;;
70052;SDS011;57398;52.032;4.376;2023-03-01T04:28:18;30.05;;;10.98;;
70052;SDS011;57398;52.032;4.376;2023-03-01T04:31:08;25.73;;;9.52;;
70052;SDS011;57398;52.032;4.376;2023-03-01T04:34:00;31.00;;;9.77;;
70052;SDS011;57398;52.032;4.376;2023-03-01T04:36:49;27.85;;;10.95;;
70052;SDS011;57398;52.032;4.376;2023-03-01T04:39:37;26.50;;;10.55;;
70052;SDS011;57398;52.032;4.376;2023-03-01T04:42:32;29.95;;;10.82;;
70052;SDS011;57398;52.032;4.376;2023-03-01T04:45:22;39.03;;;12.20;;
70052;SDS011;57398;52.032;4.376;2023-03-01T04:48:11;32.00;;;11.30;;
70052;SDS011;57398;52.032;4.376;2023-03-01T04:50:59;40.03;;;12.93;;
70052;SDS011;57398;52.032;4.376;2023-03-01T04:53:47;35.35;;;11.60;;
70052;SDS011;57398;52.032;4.376;2023-03-01T04:56:36;42.33;;;13.48;;
70052;SDS011;57398;52.032;4.376;2023-03-01T04:59:24;48.13;;;13.15;;
70052;SDS011;57398;52.032;4.376;2023-03-01T05:02:14;40.60;;;12.67;;
70052;SDS011;57398;52.032;4.376;2023-03-01T05:05:02;42.03;;;12.32;;
70052;SDS011;57398;52.032;4.376;2023-03-01T05:07:56;47.42;;;12.43;;
70052;SDS011;57398;52.032;4.376;2023-03-01T05:10:46;39.00;;;11.60;;
70052;SDS011;57398;52.032;4.376;2023-03-01T05:13:38;46.00;;;12.25;;
70052;SDS011;57398;52.032;4.376;2023-03-01T05:16:27;38.63;;;11.87;;
70052;SDS011;57398;52.032;4.376;2023-03-01T05:19:21;40.15;;;12.13;;
70052;SDS011;57398;52.032;4.376;2023-03-01T05:22:09;40.65;;;12.57;;
70052;SDS011;57398;52.032;4.376;2023-03-01T05:24:58;34.95;;;11.40;;
70052;SDS011;57398;52.032;4.376;2023-03-01T05:27:46;42.25;;;11.98;;
70052;SDS011;57398;52.032;4.376;2023-03-01T05:30:34;35.37;;;13.43;;
70052;SDS011;57398;52.032;4.376;2023-03-01T05:33:26;35.17;;;9.95;;
70052;SDS011;57398;52.032;4.376;2023-03-01T05:36:16;35.08;;;11.07;;
70052;SDS011;57398;52.032;4.376;2023-03-01T05:39:05;39.38;;;11.73;;
70052;SDS011;57398;52.032;4.376;2023-03-01T05:41:53;39.55;;;10.73;;
70052;SDS011;57398;52.032;4.376;2023-03-01T05:44:43;43.20;;;12.03;;
70052;SDS011;57398;52.032;4.376;2023-03-01T05:47:31;33.03;;;11.23;;
70052;SDS011;57398;52.032;4.376;2023-03-01T05:50:21;35.15;;;11.43;;
70052;SDS011;57398;52.032;4.376;2023-03-01T05:53:12;27.77;;;10.80;;
70052;SDS011;57398;52.032;4.376;2023-03-01T05:56:02;31.98;;;11.90;;
70052;SDS011;57398;52.032;4.376;2023-03-01T05:58:50;39.43;;;12.40;;
70052;SDS011;57398;52.032;4.376;2023-03-01T06:01:38;36.55;;;12.98;;
70052;SDS011;57398;52.032;4.376;2023-03-01T06:04:27;35.30;;;12.25;;
70052;SDS011;57398;52.032;4.376;2023-03-01T06:07:15;38.10;;;11.95;;
70052;SDS011;57398;52.032;4.376;2023-03-01T06:10:05;38.38;;;12.75;;
70052;SDS011;57398;52.032;4.376;2023-03-01T06:12:56;37.00;;;12.87;;
70052;SDS011;57398;52.032;4.376;2023-03-01T06:15:45;37.33;;;11.90;;
70052;SDS011;57398;52.032;4.376;2023-03-01T06:18:33;33.65;;;11.82;;
70052;SDS011;57398;52.032;4.376;2023-03-01T06:21:22;34.40;;;12.35;;
70052;SDS011;57398;52.032;4.376;2023-03-01T06:24:10;38.83;;;12.73;;
70052;SDS011;57398;52.032;4.376;2023-03-01T06:26:59;39.00;;;12.50;;
70052;SDS011;57398;52.032;4.376;2023-03-01T06:29:47;35.58;;;11.98;;
70052;SDS011;57398;52.032;4.376;2023-03-01T06:32:36;30.35;;;11.77;;
70052;SDS011;57398;52.032;4.376;2023-03-01T06:35:24;30.92;;;11.20;;
70052;SDS011;57398;52.032;4.376;2023-03-01T06:38:16;34.35;;;12.90;;
70052;SDS011;57398;52.032;4.376;2023-03-01T06:41:05;30.87;;;11.67;;
70052;SDS011;57398;52.032;4.376;2023-03-01T06:43:55;31.60;;;12.02;;
70052;SDS011;57398;52.032;4.376;2023-03-01T06:46:43;31.77;;;12.25;;
70052;SDS011;57398;52.032;4.376;2023-03-01T06:49:32;30.00;;;10.85;;
70052;SDS011;57398;52.032;4.376;2023-03-01T06:52:20;32.63;;;11.77;;
70052;SDS011;57398;52.032;4.376;2023-03-01T06:55:08;33.60;;;12.17;;
70052;SDS011;57398;52.032;4.376;2023-03-01T06:57:57;30.38;;;12.98;;
70052;SDS011;57398;52.032;4.376;2023-03-01T07:00:48;29.42;;;12.25;;
70052;SDS011;57398;52.032;4.376;2023-03-01T07:03:37;30.27;;;12.13;;
70052;SDS011;57398;52.032;4.376;2023-03-01T07:06:25;29.70;;;11.20;;
70052;SDS011;57398;52.032;4.376;2023-03-01T07:09:13;31.03;;;11.37;;
70052;SDS011;57398;52.032;4.376;2023-03-01T07:12:01;29.38;;;12.13;;
70052;SDS011;57398;52.032;4.376;2023-03-01T07:14:49;31.45;;;12.55;;
70052;SDS011;57398;52.032;4.376;2023-03-01T07:17:39;28.00;;;12.02;;
70052;SDS011;57398;52.032;4.376;2023-03-01T07:20:27;30.58;;;12.10;;
70052;SDS011;57398;52.032;4.376;2023-03-01T07:23:15;30.97;;;12.07;;
70052;SDS011;57398;52.032;4.376;2023-03-01T07:26:04;31.17;;;12.02;;
70052;SDS011;57398;52.032;4.376;2023-03-01T07:28:52;32.85;;;12.63;;
70052;SDS011;57398;52.032;4.376;2023-03-01T07:31:41;28.63;;;11.70;;
70052;SDS011;57398;52.032;4.376;2023-03-01T07:34:30;30.35;;;12.13;;
70052;SDS011;57398;52.032;4.376;2023-03-01T07:37:18;29.53;;;10.97;;
70052;SDS011;57398;52.032;4.376;2023-03-01T07:40:07;31.08;;;11.93;;
70052;SDS011;57398;52.032;4.376;2023-03-01T07:42:57;29.88;;;11.90;;
70052;SDS011;57398;52.032;4.376;2023-03-01T07:45:45;35.20;;;13.52;;
70052;SDS011;57398;52.032;4.376;2023-03-01T07:48:33;34.20;;;12.52;;
70052;SDS011;57398;52.032;4.376;2023-03-01T07:51:23;29.57;;;12.27;;
70052;SDS011;57398;52.032;4.376;2023-03-01T07:54:11;35.15;;;12.27;;
70052;SDS011;57398;52.032;4.376;2023-03-01T07:56:59;36.33;;;13.40;;
70052;SDS011;57398;52.032;4.376;2023-03-01T07:59:48;33.15;;;12.48;;
70052;SDS011;57398;52.032;4.376;2023-03-01T08:02:36;39.45;;;14.15;;
70052;SDS011;57398;52.032;4.376;2023-03-01T08:05:24;34.93;;;13.53;;
70052;SDS011;57398;52.032;4.376;2023-03-01T08:08:13;40.47;;;14.82;;
70052;SDS011;57398;52.032;4.376;2023-03-01T08:11:04;37.17;;;14.15;;
70052;SDS011;57398;52.032;4.376;2023-03-01T08:13:53;40.03;;;15.07;;
70052;SDS011;57398;52.032;4.376;2023-03-01T08:16:42;40.90;;;16.17;;
70052;SDS011;57398;52.032;4.376;2023-03-01T08:19:31;39.10;;;14.87;;
70052;SDS011;57398;52.032;4.376;2023-03-01T08:22:21;42.50;;;14.48;;
70052;SDS011;57398;52.032;4.376;2023-03-01T08:25:10;41.28;;;15.40;;
70052;SDS011;57398;52.032;4.376;2023-03-01T08:27:59;43.35;;;15.50;;
70052;SDS011;57398;52.032;4.376;2023-03-01T08:30:47;41.55;;;15.45;;
70052;SDS011;57398;52.032;4.376;2023-03-01T08:33:35;43.37;;;15.50;;
70052;SDS011;57398;52.032;4.376;2023-03-01T08:36:23;44.17;;;15.88;;
70052;SDS011;57398;52.032;4.376;2023-03-01T08:39:13;45.30;;;16.88;;
70052;SDS011;57398;52.032;4.376;2023-03-01T08:42:03;47.22;;;16.02;;
70052;SDS011;57398;52.032;4.376;2023-03-01T08:44:54;41.83;;;16.17;;
70052;SDS011;57398;52.032;4.376;2023-03-01T08:47:43;40.17;;;16.63;;
70052;SDS011;57398;52.032;4.376;2023-03-01T08:50:31;39.75;;;15.75;;
70052;SDS011;57398;52.032;4.376;2023-03-01T08:53:19;41.85;;;15.75;;
70052;SDS011;57398;52.032;4.376;2023-03-01T08:56:08;44.47;;;16.77;;
70052;SDS011;57398;52.032;4.376;2023-03-01T08:58:58;41.15;;;15.00;;
70052;SDS011;57398;52.032;4.376;2023-03-01T09:01:46;35.27;;;14.57;;
70052;SDS011;57398;52.032;4.376;2023-03-01T09:04:34;35.20;;;15.10;;
70052;SDS011;57398;52.032;4.376;2023-03-01T09:07:22;38.13;;;14.63;;
70052;SDS011;57398;52.032;4.376;2023-03-01T09:10:14;37.03;;;14.70;;
70052;SDS011;57398;52.032;4.376;2023-03-01T09:13:03;35.05;;;14.38;;
70052;SDS011;57398;52.032;4.376;2023-03-01T09:15:53;29.67;;;12.37;;
70052;SDS011;57398;52.032;4.376;2023-03-01T09:18:41;34.08;;;13.30;;
70052;SDS011;57398;52.032;4.376;2023-03-01T09:21:29;30.75;;;12.95;;
70052;SDS011;57398;52.032;4.376;2023-03-01T09:24:26;30.38;;;11.43;;
70052;SDS011;57398;52.032;4.376;2023-03-01T09:27:14;28.55;;;11.30;;
70052;SDS011;57398;52.032;4.376;2023-03-01T09:30:05;22.33;;;9.67;;
70052;SDS011;57398;52.032;4.376;2023-03-01T09:32:57;22.38;;;9.70;;
70052;SDS011;57398;52.032;4.376;2023-03-01T09:35:45;21.75;;;9.10;;
70052;SDS011;57398;52.032;4.376;2023-03-01T09:38:34;15.32;;;6.40;;
70052;SDS011;57398;52.032;4.376;2023-03-01T09:41:26;13.85;;;5.35;;
70052;SDS011;57398;52.032;4.376;2023-03-01T09:44:27;13.83;;;5.80;;
70052;SDS011;57398;52.032;4.376;2023-03-01T09:47:19;11.88;;;4.95;;
70052;SDS011;57398;52.032;4.376;2023-03-01T09:50:14;11.63;;;5.18;;
70052;SDS011;57398;52.032;4.376;2023-03-01T09:53:04;12.73;;;5.45;;
70052;SDS011;57398;52.032;4.376;2023-03-01T09:55:56;12.98;;;5.85;;
70052;SDS011;57398;52.032;4.376;2023-03-01T09:58:48;15.13;;;6.50;;
70052;SDS011;57398;52.032;4.376;2023-03-01T10:01:41;9.52;;;5.05;;
70052;SDS011;57398;52.032;4.376;2023-03-01T10:04:38;13.10;;;6.28;;
70052;SDS011;57398;52.032;4.376;2023-03-01T10:07:36;13.02;;;5.57;;
70052;SDS011;57398;52.032;4.376;2023-03-01T10:10:33;14.57;;;6.35;;
70052;SDS011;57398;52.032;4.376;2023-03-01T10:13:23;14.53;;;5.63;;
70052;SDS011;57398;52.032;4.376;2023-03-01T10:16:16;13.15;;;6.32;;
70052;SDS011;57398;52.032;4.376;2023-03-01T10:19:10;11.80;;;5.10;;
70052;SDS011;57398;52.032;4.376;2023-03-01T10:22:10;12.10;;;5.53;;
70052;SDS011;57398;52.032;4.376;2023-03-01T10:25:04;13.63;;;5.80;;
70052;SDS011;57398;52.032;4.376;2023-03-01T10:27:53;13.37;;;5.37;;
70052;SDS011;57398;52.032;4.376;2023-03-01T10:30:44;13.75;;;6.32;;
70052;SDS011;57398;52.032;4.376;2023-03-01T10:33:34;12.98;;;6.00;;
70052;SDS011;57398;52.032;4.376;2023-03-01T10:36:28;14.35;;;5.95;;
70052;SDS011;57398;52.032;4.376;2023-03-01T10:39:21;16.10;;;6.55;;
70052;SDS011;57398;52.032;4.376;2023-03-01T10:42:19;13.53;;;6.00;;
70052;SDS011;57398;52.032;4.376;2023-03-01T10:45:15;12.80;;;6.00;;
70052;SDS011;57398;52.032;4.376;2023-03-01T10:48:15;12.35;;;5.90;;
70052;SDS011;57398;52.032;4.376;2023-03-01T10:51:05;15.10;;;6.88;;
70052;SDS011;57398;52.032;4.376;2023-03-01T10:53:55;12.77;;;5.82;;
70052;SDS011;57398;52.032;4.376;2023-03-01T10:56:46;12.23;;;6.10;;
70052;SDS011;57398;52.032;4.376;2023-03-01T10:59:38;12.90;;;5.93;;
70052;SDS011;57398;52.032;4.376;2023-03-01T11:02:28;12.70;;;5.78;;
70052;SDS011;57398;52.032;4.376;2023-03-01T11:05:20;14.00;;;5.88;;
70052;SDS011;57398;52.032;4.376;2023-03-01T11:08:11;13.63;;;5.75;;
70052;SDS011;57398;52.032;4.376;2023-03-01T11:11:06;14.03;;;6.37;;
70052;SDS011;57398;52.032;4.376;2023-03-01T11:14:07;12.18;;;5.15;;
70052;SDS011;57398;52.032;4.376;2023-03-01T11:17:15;11.07;;;5.43;;
70052;SDS011;57398;52.032;4.376;2023-03-01T11:20:13;12.90;;;6.22;;
70052;SDS011;57398;52.032;4.376;2023-03-01T11:23:11;10.73;;;5.32;;
70052;SDS011;57398;52.032;4.376;2023-03-01T11:26:01;13.30;;;6.13;;
70052;SDS011;57398;52.032;4.376;2023-03-01T11:28:53;11.80;;;4.97;;
70052;SDS011;57398;52.032;4.376;2023-03-01T11:31:45;10.13;;;4.32;;
70052;SDS011;57398;52.032;4.376;2023-03-01T11:34:45;12.45;;;5.32;;
70052;SDS011;57398;52.032;4.376;2023-03-01T11:37:38;14.70;;;6.10;;
70052;SDS011;57398;52.032;4.376;2023-03-01T11:40:33;16.00;;;5.43;;
70052;SDS011;57398;52.032;4.376;2023-03-01T11:43:29;16.73;;;7.38;;
70052;SDS011;57398;52.032;4.376;2023-03-01T11:46:28;13.60;;;5.70;;
70052;SDS011;57398;52.032;4.376;2023-03-01T11:53:13;14.25;;;6.10;;
70052;SDS011;57398;52.032;4.376;2023-03-01T11:56:22;12.60;;;5.83;;
70052;SDS011;57398;52.032;4.376;2023-03-01T11:59:20;12.27;;;5.97;;
70052;SDS011;57398;52.032;4.376;2023-03-01T12:02:34;13.90;;;6.05;;
70052;SDS011;57398;52.032;4.376;2023-03-01T12:05:40;14.23;;;6.47;;
70052;SDS011;57398;52.032;4.376;2023-03-01T12:08:40;17.70;;;6.40;;
70052;SDS011;57398;52.032;4.376;2023-03-01T12:11:37;16.77;;;7.37;;
70052;SDS011;57398;52.032;4.376;2023-03-01T12:14:46;14.93;;;6.78;;
70052;SDS011;57398;52.032;4.376;2023-03-01T12:17:48;14.00;;;6.28;;
70052;SDS011;57398;52.032;4.376;2023-03-01T12:20:56;15.63;;;6.82;;
70052;SDS011;57398;52.032;4.376;2023-03-01T12:27:28;12.60;;;6.13;;
70052;SDS011;57398;52.032;4.376;2023-03-01T12:30:31;14.48;;;6.20;;
70052;SDS011;57398;52.032;4.376;2023-03-01T12:33:29;11.88;;;5.57;;
70052;SDS011;57398;52.032;4.376;2023-03-01T12:39:43;15.77;;;6.07;;
70052;SDS011;57398;52.032;4.376;2023-03-01T12:42:40;12.23;;;5.97;;
70052;SDS011;57398;52.032;4.376;2023-03-01T12:45:42;15.57;;;6.70;;
70052;SDS011;57398;52.032;4.376;2023-03-01T12:48:40;17.67;;;7.45;;
70052;SDS011;57398;52.032;4.376;2023-03-01T12:51:36;13.27;;;6.32;;
70052;SDS011;57398;52.032;4.376;2023-03-01T12:54:28;14.40;;;6.93;;
70052;SDS011;57398;52.032;4.376;2023-03-01T12:57:20;12.10;;;6.17;;
70052;SDS011;57398;52.032;4.376;2023-03-01T13:00:26;17.90;;;6.90;;
70052;SDS011;57398;52.032;4.376;2023-03-01T13:03:19;15.25;;;6.93;;
70052;SDS011;57398;52.032;4.376;2023-03-01T13:06:19;16.35;;;7.20;;
70052;SDS011;57398;52.032;4.376;2023-03-01T13:09:31;18.55;;;7.68;;
70052;SDS011;57398;52.032;4.376;2023-03-01T13:12:41;17.03;;;7.23;;
70052;SDS011;57398;52.032;4.376;2023-03-01T13:15:34;17.67;;;7.30;;
70052;SDS011;57398;52.032;4.376;2023-03-01T13:18:35;17.08;;;7.38;;
70052;SDS011;57398;52.032;4.376;2023-03-01T13:21:29;17.92;;;6.10;;
70052;SDS011;57398;52.032;4.376;2023-03-01T13:24:26;14.93;;;6.90;;
70052;SDS011;57398;52.032;4.376;2023-03-01T13:27:22;12.97;;;5.67;;
70052;SDS011;57398;52.032;4.376;2023-03-01T13:36:46;12.82;;;6.15;;
70052;SDS011;57398;52.032;4.376;2023-03-01T13:39:38;11.95;;;5.85;;
70052;SDS011;57398;52.032;4.376;2023-03-01T13:42:37;12.20;;;5.20;;
70052;SDS011;57398;52.032;4.376;2023-03-01T13:45:32;10.98;;;4.47;;
70052;SDS011;57398;52.032;4.376;2023-03-01T13:48:25;9.15;;;3.80;;
70052;SDS011;57398;52.032;4.376;2023-03-01T13:51:16;12.43;;;4.10;;
70052;SDS011;57398;52.032;4.376;2023-03-01T13:54:11;10.90;;;4.57;;
70052;SDS011;57398;52.032;4.376;2023-03-01T13:57:01;9.20;;;4.00;;
70052;SDS011;57398;52.032;4.376;2023-03-01T13:59:51;10.93;;;4.30;;
70052;SDS011;57398;52.032;4.376;2023-03-01T14:02:39;14.00;;;5.68;;
70052;SDS011;57398;52.032;4.376;2023-03-01T14:05:28;10.40;;;4.15;;
70052;SDS011;57398;52.032;4.376;2023-03-01T14:08:18;8.27;;;3.75;;
70052;SDS011;57398;52.032;4.376;2023-03-01T14:11:27;8.60;;;3.90;;
70052;SDS011;57398;52.032;4.376;2023-03-01T14:14:32;12.70;;;4.50;;
70052;SDS011;57398;52.032;4.376;2023-03-01T14:17:37;10.43;;;4.25;;
70052;SDS011;57398;52.032;4.376;2023-03-01T14:20:32;10.77;;;4.22;;
70052;SDS011;57398;52.032;4.376;2023-03-01T14:23:26;8.52;;;3.88;;
70052;SDS011;57398;52.032;4.376;2023-03-01T14:26:19;9.70;;;4.40;;
70052;SDS011;57398;52.032;4.376;2023-03-01T14:29:22;10.98;;;4.80;;
70052;SDS011;57398;52.032;4.376;2023-03-01T14:32:12;9.30;;;4.50;;
70052;SDS011;57398;52.032;4.376;2023-03-01T14:35:19;9.70;;;3.90;;
70052;SDS011;57398;52.032;4.376;2023-03-01T14:38:19;10.07;;;3.97;;
70052;SDS011;57398;52.032;4.376;2023-03-01T14:41:08;7.83;;;3.23;;
70052;SDS011;57398;52.032;4.376;2023-03-01T14:44:00;9.20;;;4.20;;
70052;SDS011;57398;52.032;4.376;2023-03-01T14:46:51;8.30;;;3.90;;
70052;SDS011;57398;52.032;4.376;2023-03-01T14:49:41;10.65;;;4.35;;
70052;SDS011;57398;52.032;4.376;2023-03-01T14:52:36;13.10;;;5.63;;
70052;SDS011;57398;52.032;4.376;2023-03-01T14:55:27;12.23;;;4.73;;
70052;SDS011;57398;52.032;4.376;2023-03-01T14:58:20;13.07;;;5.20;;
70052;SDS011;57398;52.032;4.376;2023-03-01T15:01:10;9.55;;;4.30;;
70052;SDS011;57398;52.032;4.376;2023-03-01T15:04:03;12.95;;;4.97;;
70052;SDS011;57398;52.032;4.376;2023-03-01T15:06:53;10.95;;;5.15;;
70052;SDS011;57398;52.032;4.376;2023-03-01T15:09:44;12.63;;;5.80;;
70052;SDS011;57398;52.032;4.376;2023-03-01T15:12:38;8.90;;;3.95;;
70052;SDS011;57398;52.032;4.376;2023-03-01T15:15:34;10.88;;;4.88;;
70052;SDS011;57398;52.032;4.376;2023-03-01T15:18:26;8.35;;;3.88;;
70052;SDS011;57398;52.032;4.376;2023-03-01T15:21:17;11.13;;;4.32;;
70052;SDS011;57398;52.032;4.376;2023-03-01T15:24:16;11.73;;;4.23;;
70052;SDS011;57398;52.032;4.376;2023-03-01T15:27:14;11.27;;;4.10;;
70052;SDS011;57398;52.032;4.376;2023-03-01T15:30:05;7.38;;;3.55;;
70052;SDS011;57398;52.032;4.376;2023-03-01T15:42:42;9.88;;;3.95;;
70052;SDS011;57398;52.032;4.376;2023-03-01T15:45:30;9.20;;;4.38;;
70052;SDS011;57398;52.032;4.376;2023-03-01T15:48:20;9.77;;;4.88;;
70052;SDS011;57398;52.032;4.376;2023-03-01T15:51:12;11.23;;;5.05;;
70052;SDS011;57398;52.032;4.376;2023-03-01T15:54:04;11.47;;;5.10;;
70052;SDS011;57398;52.032;4.376;2023-03-01T15:56:54;12.38;;;5.65;;
70052;SDS011;57398;52.032;4.376;2023-03-01T15:59:44;15.77;;;5.53;;
70052;SDS011;57398;52.032;4.376;2023-03-01T16:02:32;13.45;;;5.78;;
70052;SDS011;57398;52.032;4.376;2023-03-01T16:05:21;12.18;;;5.38;;
70052;SDS011;57398;52.032;4.376;2023-03-01T16:08:11;11.20;;;5.07;;
70052;SDS011;57398;52.032;4.376;2023-03-01T16:10:59;11.15;;;4.80;;
70052;SDS011;57398;52.032;4.376;2023-03-01T16:13:49;12.48;;;5.60;;
70052;SDS011;57398;52.032;4.376;2023-03-01T16:16:39;11.13;;;4.90;;
70052;SDS011;57398;52.032;4.376;2023-03-01T16:19:27;13.95;;;5.70;;
70052;SDS011;57398;52.032;4.376;2023-03-01T16:22:15;10.30;;;4.50;;
70052;SDS011;57398;52.032;4.376;2023-03-01T16:25:04;10.55;;;4.95;;
70052;SDS011;57398;52.032;4.376;2023-03-01T16:27:54;14.63;;;5.40;;
70052;SDS011;57398;52.032;4.376;2023-03-01T16:30:45;12.75;;;4.43;;
70052;SDS011;57398;52.032;4.376;2023-03-01T16:33:37;8.48;;;3.83;;
70052;SDS011;57398;52.032;4.376;2023-03-01T16:36:26;9.60;;;4.57;;
70052;SDS011;57398;52.032;4.376;2023-03-01T16:39:15;11.05;;;5.05;;
70052;SDS011;57398;52.032;4.376;2023-03-01T16:42:03;11.82;;;5.68;;
70052;SDS011;57398;52.032;4.376;2023-03-01T16:44:54;9.82;;;4.60;;
70052;SDS011;57398;52.032;4.376;2023-03-01T16:47:42;11.00;;;4.97;;
70052;SDS011;57398;52.032;4.376;2023-03-01T16:50:32;9.97;;;4.13;;
70052;SDS011;57398;52.032;4.376;2023-03-01T16:53:20;11.93;;;5.78;;
70052;SDS011;57398;52.032;4.376;2023-03-01T16:56:10;11.20;;;4.60;;
70052;SDS011;57398;52.032;4.376;2023-03-01T16:58:59;12.25;;;5.00;;
70052;SDS011;57398;52.032;4.376;2023-03-01T17:01:50;12.65;;;5.30;;
70052;SDS011;57398;52.032;4.376;2023-03-01T17:04:38;11.70;;;5.73;;
70052;SDS011;57398;52.032;4.376;2023-03-01T17:07:27;10.82;;;4.95;;
70052;SDS011;57398;52.032;4.376;2023-03-01T17:10:19;11.60;;;5.85;;
70052;SDS011;57398;52.032;4.376;2023-03-01T17:13:08;12.40;;;5.70;;
70052;SDS011;57398;52.032;4.376;2023-03-01T17:15:56;13.68;;;5.72;;
70052;SDS011;57398;52.032;4.376;2023-03-01T17:18:45;13.87;;;5.93;;
70052;SDS011;57398;52.032;4.376;2023-03-01T17:21:33;14.25;;;6.03;;
70052;SDS011;57398;52.032;4.376;2023-03-01T17:24:23;13.93;;;5.80;;